Terminal Aerodrome Forecast
Issued by NWS Wilmington, NC

Home | Current Version | Previous Version | Text Only | Print | Product List | Glossary On
Versions: 1 2 3 4 5 6 7 8 9 10 11 12 13 14 15 16 17 18 19 20 21 22 23 24 25 26 27 28 29 30 31 32 33 34 35 36 37 38 39 40
000
FTUS42 KILM 231120
TAFFLO
TAF
KFLO 231120Z 2312/2412 23009KT P6SM SCT030 OVC250
     FM231500 24014KT P6SM VCSH BKN025 OVC120
      TEMPO 2315/2318 5SM -SHRA BKN025
     FM232100 28007KT P6SM OVC040=

USA.gov is the U.S. government's official web portal to all federal, state and local government web resources and services.